sensor_id;sensor_type;location;lat;lon;timestamp;temperature;humidity
67192;HTU21D;54120;53.504;49.426;2023-12-29T00:02:07;-5.31;87.99
67192;HTU21D;54120;53.504;49.426;2023-12-29T00:04:33;-5.32;87.26
67192;HTU21D;54120;53.504;49.426;2023-12-29T00:07:01;-5.33;87.03
67192;HTU21D;54120;53.504;49.426;2023-12-29T00:09:28;-5.38;85.34
67192;HTU21D;54120;53.504;49.426;2023-12-29T00:11:54;-5.39;84.65
67192;HTU21D;54120;53.504;49.426;2023-12-29T00:14:20;-5.34;84.49
67192;HTU21D;54120;53.504;49.426;2023-12-29T00:16:47;-5.30;82.46
67192;HTU21D;54120;53.504;49.426;2023-12-29T00:19:15;-5.31;82.84
67192;HTU21D;54120;53.504;49.426;2023-12-29T00:21:42;-5.27;82.65
67192;HTU21D;54120;53.504;49.426;2023-12-29T00:24:08;-5.22;81.68
67192;HTU21D;54120;53.504;49.426;2023-12-29T00:26:34;-5.22;80.37
67192;HTU21D;54120;53.504;49.426;2023-12-29T00:29:01;-5.18;80.33
67192;HTU21D;54120;53.504;49.426;2023-12-29T00:31:27;-5.16;80.02
67192;HTU21D;54120;53.504;49.426;2023-12-29T00:33:53;-5.12;79.21
67192;HTU21D;54120;53.504;49.426;2023-12-29T00:36:20;-5.11;79.88
67192;HTU21D;54120;53.504;49.426;2023-12-29T00:38:47;-5.08;79.60
67192;HTU21D;54120;53.504;49.426;2023-12-29T00:41:14;-5.08;79.76
67192;HTU21D;54120;53.504;49.426;2023-12-29T00:43:41;-5.04;79.18
67192;HTU21D;54120;53.504;49.426;2023-12-29T00:46:08;-5.07;79.30
67192;HTU21D;54120;53.504;49.426;2023-12-29T00:48:34;-5.11;79.33
67192;HTU21D;54120;53.504;49.426;2023-12-29T00:51:02;-5.12;79.29
67192;HTU21D;54120;53.504;49.426;2023-12-29T00:53:29;-5.13;79.73
67192;HTU21D;54120;53.504;49.426;2023-12-29T00:55:55;-5.10;80.56
67192;HTU21D;54120;53.504;49.426;2023-12-29T00:58:21;-5.11;80.68
67192;HTU21D;54120;53.504;49.426;2023-12-29T01:00:47;-5.13;80.46
67192;HTU21D;54120;53.504;49.426;2023-12-29T01:03:13;-5.14;81.25
67192;HTU21D;54120;53.504;49.426;2023-12-29T01:05:40;-5.15;81.91
67192;HTU21D;54120;53.504;49.426;2023-12-29T01:08:06;-5.18;81.41
67192;HTU21D;54120;53.504;49.426;2023-12-29T01:10:34;-5.20;81.84
67192;HTU21D;54120;53.504;49.426;2023-12-29T01:13:00;-5.22;81.76
67192;HTU21D;54120;53.504;49.426;2023-12-29T01:15:26;-5.27;81.89
67192;HTU21D;54120;53.504;49.426;2023-12-29T01:17:54;-5.35;81.75
67192;HTU21D;54120;53.504;49.426;2023-12-29T01:20:20;-5.43;82.28
67192;HTU21D;54120;53.504;49.426;2023-12-29T01:22:47;-5.53;82.70
67192;HTU21D;54120;53.504;49.426;2023-12-29T01:25:13;-5.59;82.58
67192;HTU21D;54120;53.504;49.426;2023-12-29T01:27:39;-5.64;82.87
67192;HTU21D;54120;53.504;49.426;2023-12-29T01:30:05;-5.68;82.74
67192;HTU21D;54120;53.504;49.426;2023-12-29T01:32:31;-5.70;82.55
67192;HTU21D;54120;53.504;49.426;2023-12-29T01:34:58;-5.72;82.80
67192;HTU21D;54120;53.504;49.426;2023-12-29T01:37:24;-5.77;82.86
67192;HTU21D;54120;53.504;49.426;2023-12-29T01:39:51;-5.77;83.07
67192;HTU21D;54120;53.504;49.426;2023-12-29T01:42:18;-5.76;82.62
67192;HTU21D;54120;53.504;49.426;2023-12-29T01:44:44;-5.74;82.68
67192;HTU21D;54120;53.504;49.426;2023-12-29T01:47:15;-5.71;82.68
67192;HTU21D;54120;53.504;49.426;2023-12-29T01:49:45;-5.63;82.44
67192;HTU21D;54120;53.504;49.426;2023-12-29T01:52:14;-5.58;82.10
67192;HTU21D;54120;53.504;49.426;2023-12-29T01:54:41;-5.54;81.91
67192;HTU21D;54120;53.504;49.426;2023-12-29T01:57:08;-5.52;81.43
67192;HTU21D;54120;53.504;49.426;2023-12-29T01:59:35;-5.52;81.63
67192;HTU21D;54120;53.504;49.426;2023-12-29T02:02:02;-5.53;81.85
67192;HTU21D;54120;53.504;49.426;2023-12-29T02:04:28;-5.54;81.69
67192;HTU21D;54120;53.504;49.426;2023-12-29T02:06:55;-5.59;81.68
67192;HTU21D;54120;53.504;49.426;2023-12-29T02:09:22;-5.61;81.74
67192;HTU21D;54120;53.504;49.426;2023-12-29T02:11:48;-5.62;81.88
67192;HTU21D;54120;53.504;49.426;2023-12-29T02:14:15;-5.65;81.77
67192;HTU21D;54120;53.504;49.426;2023-12-29T02:19:37;-5.71;82.84
67192;HTU21D;54120;53.504;49.426;2023-12-29T02:22:07;-5.75;83.56
67192;HTU21D;54120;53.504;49.426;2023-12-29T02:24:34;-5.82;83.76
67192;HTU21D;54120;53.504;49.426;2023-12-29T02:27:11;-5.93;84.32
67192;HTU21D;54120;53.504;49.426;2023-12-29T02:29:40;-6.03;84.92
67192;HTU21D;54120;53.504;49.426;2023-12-29T02:32:11;-6.06;85.37
67192;HTU21D;54120;53.504;49.426;2023-12-29T02:34:40;-6.12;85.87
67192;HTU21D;54120;53.504;49.426;2023-12-29T02:37:08;-6.14;86.09
67192;HTU21D;54120;53.504;49.426;2023-12-29T02:39:36;-6.15;86.24
67192;HTU21D;54120;53.504;49.426;2023-12-29T02:42:03;-6.24;86.82
67192;HTU21D;54120;53.504;49.426;2023-12-29T02:44:31;-6.27;87.13
67192;HTU21D;54120;53.504;49.426;2023-12-29T02:46:57;-6.24;87.06
67192;HTU21D;54120;53.504;49.426;2023-12-29T02:49:26;-6.27;87.05
67192;HTU21D;54120;53.504;49.426;2023-12-29T02:51:52;-6.29;87.41
67192;HTU21D;54120;53.504;49.426;2023-12-29T02:54:19;-6.29;87.38
67192;HTU21D;54120;53.504;49.426;2023-12-29T02:56:45;-6.30;87.51
67192;HTU21D;54120;53.504;49.426;2023-12-29T02:59:11;-6.35;87.64
67192;HTU21D;54120;53.504;49.426;2023-12-29T03:01:38;-6.31;87.57
67192;HTU21D;54120;53.504;49.426;2023-12-29T03:04:04;-6.31;87.25
67192;HTU21D;54120;53.504;49.426;2023-12-29T03:06:30;-6.31;86.99
67192;HTU21D;54120;53.504;49.426;2023-12-29T03:08:56;-6.34;86.61
67192;HTU21D;54120;53.504;49.426;2023-12-29T03:11:22;-6.37;86.43
67192;HTU21D;54120;53.504;49.426;2023-12-29T03:13:49;-6.41;86.51
67192;HTU21D;54120;53.504;49.426;2023-12-29T03:16:15;-6.35;86.31
67192;HTU21D;54120;53.504;49.426;2023-12-29T03:18:41;-6.32;86.25
67192;HTU21D;54120;53.504;49.426;2023-12-29T03:21:07;-6.31;86.20
67192;HTU21D;54120;53.504;49.426;2023-12-29T03:23:34;-6.33;86.40
67192;HTU21D;54120;53.504;49.426;2023-12-29T03:26:01;-6.30;86.68
67192;HTU21D;54120;53.504;49.426;2023-12-29T03:28:28;-6.31;86.64
67192;HTU21D;54120;53.504;49.426;2023-12-29T03:30:54;-6.29;86.65
67192;HTU21D;54120;53.504;49.426;2023-12-29T03:33:20;-6.27;86.99
67192;HTU21D;54120;53.504;49.426;2023-12-29T03:35:47;-6.29;87.04
67192;HTU21D;54120;53.504;49.426;2023-12-29T03:38:14;-6.26;87.47
67192;HTU21D;54120;53.504;49.426;2023-12-29T03:40:40;-6.27;87.60
67192;HTU21D;54120;53.504;49.426;2023-12-29T03:43:07;-6.26;88.05
67192;HTU21D;54120;53.504;49.426;2023-12-29T03:45:33;-6.22;88.08
67192;HTU21D;54120;53.504;49.426;2023-12-29T03:48:00;-6.15;87.77
67192;HTU21D;54120;53.504;49.426;2023-12-29T03:50:27;-6.12;87.73
67192;HTU21D;54120;53.504;49.426;2023-12-29T03:52:53;-6.04;87.39
67192;HTU21D;54120;53.504;49.426;2023-12-29T03:55:20;-6.03;87.73
67192;HTU21D;54120;53.504;49.426;2023-12-29T03:57:47;-6.01;87.60
67192;HTU21D;54120;53.504;49.426;2023-12-29T04:00:14;-5.97;87.42
67192;HTU21D;54120;53.504;49.426;2023-12-29T04:02:41;-5.94;87.79
67192;HTU21D;54120;53.504;49.426;2023-12-29T04:05:11;-5.96;87.77
67192;HTU21D;54120;53.504;49.426;2023-12-29T04:07:40;-5.91;87.83
67192;HTU21D;54120;53.504;49.426;2023-12-29T04:10:07;-5.91;87.91
67192;HTU21D;54120;53.504;49.426;2023-12-29T04:12:34;-5.90;88.09
67192;HTU21D;54120;53.504;49.426;2023-12-29T04:15:03;-5.88;88.05
67192;HTU21D;54120;53.504;49.426;2023-12-29T04:17:29;-5.89;87.82
67192;HTU21D;54120;53.504;49.426;2023-12-29T04:19:55;-5.90;87.88
67192;HTU21D;54120;53.504;49.426;2023-12-29T04:22:22;-5.91;88.18
67192;HTU21D;54120;53.504;49.426;2023-12-29T04:24:48;-5.88;88.09
67192;HTU21D;54120;53.504;49.426;2023-12-29T04:27:15;-5.82;87.97
67192;HTU21D;54120;53.504;49.426;2023-12-29T04:29:43;-5.79;87.61
67192;HTU21D;54120;53.504;49.426;2023-12-29T04:32:10;-5.75;87.56
67192;HTU21D;54120;53.504;49.426;2023-12-29T04:34:36;-5.72;87.37
67192;HTU21D;54120;53.504;49.426;2023-12-29T04:37:02;-5.71;87.50
67192;HTU21D;54120;53.504;49.426;2023-12-29T04:39:28;-5.67;87.06
67192;HTU21D;54120;53.504;49.426;2023-12-29T04:41:54;-5.62;86.92
67192;HTU21D;54120;53.504;49.426;2023-12-29T04:44:21;-5.60;86.93
67192;HTU21D;54120;53.504;49.426;2023-12-29T04:46:48;-5.58;86.73
67192;HTU21D;54120;53.504;49.426;2023-12-29T04:49:14;-5.58;86.77
67192;HTU21D;54120;53.504;49.426;2023-12-29T04:51:41;-5.55;86.75
67192;HTU21D;54120;53.504;49.426;2023-12-29T04:54:08;-5.48;86.49
67192;HTU21D;54120;53.504;49.426;2023-12-29T04:56:34;-5.47;86.35
67192;HTU21D;54120;53.504;49.426;2023-12-29T04:59:00;-5.46;86.35
67192;HTU21D;54120;53.504;49.426;2023-12-29T05:01:26;-5.46;86.41
67192;HTU21D;54120;53.504;49.426;2023-12-29T05:03:53;-5.46;86.61
67192;HTU21D;54120;53.504;49.426;2023-12-29T05:06:19;-5.40;86.19
67192;HTU21D;54120;53.504;49.426;2023-12-29T05:08:46;-5.33;86.12
67192;HTU21D;54120;53.504;49.426;2023-12-29T05:11:12;-5.29;85.67
67192;HTU21D;54120;53.504;49.426;2023-12-29T05:13:38;-5.24;85.26
67192;HTU21D;54120;53.504;49.426;2023-12-29T05:16:05;-5.26;85.34
67192;HTU21D;54120;53.504;49.426;2023-12-29T05:18:32;-5.24;85.09
67192;HTU21D;54120;53.504;49.426;2023-12-29T05:20:59;-5.12;84.60
67192;HTU21D;54120;53.504;49.426;2023-12-29T05:23:26;-5.13;84.59
67192;HTU21D;54120;53.504;49.426;2023-12-29T05:25:52;-5.09;84.29
67192;HTU21D;54120;53.504;49.426;2023-12-29T05:28:18;-5.04;83.69
67192;HTU21D;54120;53.504;49.426;2023-12-29T05:30:44;-4.95;83.13
67192;HTU21D;54120;53.504;49.426;2023-12-29T05:33:10;-4.93;82.51
67192;HTU21D;54120;53.504;49.426;2023-12-29T05:35:36;-4.96;82.33
67192;HTU21D;54120;53.504;49.426;2023-12-29T05:38:03;-4.95;81.82
67192;HTU21D;54120;53.504;49.426;2023-12-29T05:40:30;-4.94;81.66
67192;HTU21D;54120;53.504;49.426;2023-12-29T05:42:56;-4.96;81.20
67192;HTU21D;54120;53.504;49.426;2023-12-29T05:45:22;-4.98;81.36
67192;HTU21D;54120;53.504;49.426;2023-12-29T05:47:48;-4.93;81.24
67192;HTU21D;54120;53.504;49.426;2023-12-29T05:50:14;-4.81;81.22
67192;HTU21D;54120;53.504;49.426;2023-12-29T05:52:40;-4.80;80.98
67192;HTU21D;54120;53.504;49.426;2023-12-29T05:55:07;-4.84;80.96
67192;HTU21D;54120;53.504;49.426;2023-12-29T05:57:33;-4.81;81.45
67192;HTU21D;54120;53.504;49.426;2023-12-29T06:00:00;-4.76;80.75
67192;HTU21D;54120;53.504;49.426;2023-12-29T06:02:27;-4.70;80.73
67192;HTU21D;54120;53.504;49.426;2023-12-29T06:04:54;-4.54;79.81
67192;HTU21D;54120;53.504;49.426;2023-12-29T06:07:20;-4.20;78.61
67192;HTU21D;54120;53.504;49.426;2023-12-29T06:09:46;-3.93;77.64
67192;HTU21D;54120;53.504;49.426;2023-12-29T06:12:12;-3.64;76.49
67192;HTU21D;54120;53.504;49.426;2023-12-29T06:14:39;-3.24;75.29
67192;HTU21D;54120;53.504;49.426;2023-12-29T06:17:05;-3.09;74.27
67192;HTU21D;54120;53.504;49.426;2023-12-29T06:19:31;-3.27;75.18
67192;HTU21D;54120;53.504;49.426;2023-12-29T06:21:58;-3.51;76.19
67192;HTU21D;54120;53.504;49.426;2023-12-29T06:24:25;-3.78;77.50
67192;HTU21D;54120;53.504;49.426;2023-12-29T06:26:51;-3.75;77.47
67192;HTU21D;54120;53.504;49.426;2023-12-29T06:29:17;-3.77;78.46
67192;HTU21D;54120;53.504;49.426;2023-12-29T06:31:43;-3.76;78.47
67192;HTU21D;54120;53.504;49.426;2023-12-29T06:34:09;-3.62;78.57
67192;HTU21D;54120;53.504;49.426;2023-12-29T06:36:36;-3.51;77.80
67192;HTU21D;54120;53.504;49.426;2023-12-29T06:39:02;-3.35;76.95
67192;HTU21D;54120;53.504;49.426;2023-12-29T06:41:28;-3.04;75.98
67192;HTU21D;54120;53.504;49.426;2023-12-29T06:43:54;-2.69;74.04
67192;HTU21D;54120;53.504;49.426;2023-12-29T06:46:20;-2.66;73.82
67192;HTU21D;54120;53.504;49.426;2023-12-29T06:48:46;-2.78;74.72
67192;HTU21D;54120;53.504;49.426;2023-12-29T06:51:17;-2.57;73.48
67192;HTU21D;54120;53.504;49.426;2023-12-29T06:53:45;-2.39;72.60
67192;HTU21D;54120;53.504;49.426;2023-12-29T06:56:15;-2.22;72.03
67192;HTU21D;54120;53.504;49.426;2023-12-29T06:58:42;-1.92;70.75
67192;HTU21D;54120;53.504;49.426;2023-12-29T07:01:08;-1.53;68.87
67192;HTU21D;54120;53.504;49.426;2023-12-29T07:03:35;-1.65;68.94
67192;HTU21D;54120;53.504;49.426;2023-12-29T07:06:02;-1.91;70.04
67192;HTU21D;54120;53.504;49.426;2023-12-29T07:08:28;-1.84;69.97
67192;HTU21D;54120;53.504;49.426;2023-12-29T07:10:54;-1.71;69.23
67192;HTU21D;54120;53.504;49.426;2023-12-29T07:13:21;-1.94;69.81
67192;HTU21D;54120;53.504;49.426;2023-12-29T07:15:47;-2.18;70.43
67192;HTU21D;54120;53.504;49.426;2023-12-29T07:18:14;-2.31;71.13
67192;HTU21D;54120;53.504;49.426;2023-12-29T07:20:42;-2.58;72.08
67192;HTU21D;54120;53.504;49.426;2023-12-29T07:23:09;-2.61;72.52
67192;HTU21D;54120;53.504;49.426;2023-12-29T07:25:35;-2.54;72.52
67192;HTU21D;54120;53.504;49.426;2023-12-29T07:28:01;-2.61;72.76
67192;HTU21D;54120;53.504;49.426;2023-12-29T07:30:28;-2.90;74.32
67192;HTU21D;54120;53.504;49.426;2023-12-29T07:32:54;-3.16;76.28
67192;HTU21D;54120;53.504;49.426;2023-12-29T07:35:20;-3.31;77.69
67192;HTU21D;54120;53.504;49.426;2023-12-29T07:37:46;-3.27;77.31
67192;HTU21D;54120;53.504;49.426;2023-12-29T07:40:13;-3.34;78.26
67192;HTU21D;54120;53.504;49.426;2023-12-29T07:42:40;-3.47;79.05
67192;HTU21D;54120;53.504;49.426;2023-12-29T07:45:07;-3.49;79.71
67192;HTU21D;54120;53.504;49.426;2023-12-29T07:47:35;-3.53;80.79
67192;HTU21D;54120;53.504;49.426;2023-12-29T07:50:02;-3.57;81.81
67192;HTU21D;54120;53.504;49.426;2023-12-29T07:52:30;-3.55;81.90
67192;HTU21D;54120;53.504;49.426;2023-12-29T07:54:56;-3.32;80.91
67192;HTU21D;54120;53.504;49.426;2023-12-29T07:57:22;-3.41;81.09
67192;HTU21D;54120;53.504;49.426;2023-12-29T07:59:49;-3.31;80.72
67192;HTU21D;54120;53.504;49.426;2023-12-29T08:02:15;-3.18;80.46
67192;HTU21D;54120;53.504;49.426;2023-12-29T08:04:42;-2.97;79.36
67192;HTU21D;54120;53.504;49.426;2023-12-29T08:07:10;-2.67;77.19
67192;HTU21D;54120;53.504;49.426;2023-12-29T08:09:43;-2.65;76.61
67192;HTU21D;54120;53.504;49.426;2023-12-29T08:12:10;-2.83;76.53
67192;HTU21D;54120;53.504;49.426;2023-12-29T08:14:38;-3.02;77.13
67192;HTU21D;54120;53.504;49.426;2023-12-29T08:17:04;-3.13;76.91
67192;HTU21D;54120;53.504;49.426;2023-12-29T08:19:30;-3.32;77.87
67192;HTU21D;54120;53.504;49.426;2023-12-29T08:21:57;-3.36;77.87
67192;HTU21D;54120;53.504;49.426;2023-12-29T08:24:23;-3.50;78.33
67192;HTU21D;54120;53.504;49.426;2023-12-29T08:26:49;-3.42;78.48
67192;HTU21D;54120;53.504;49.426;2023-12-29T08:29:15;-3.17;77.40
67192;HTU21D;54120;53.504;49.426;2023-12-29T08:31:44;-3.05;77.01
67192;HTU21D;54120;53.504;49.426;2023-12-29T08:34:10;-2.97;76.10
67192;HTU21D;54120;53.504;49.426;2023-12-29T08:36:36;-3.06;76.38
67192;HTU21D;54120;53.504;49.426;2023-12-29T08:39:02;-2.84;75.91
67192;HTU21D;54120;53.504;49.426;2023-12-29T08:41:28;-2.76;75.59
67192;HTU21D;54120;53.504;49.426;2023-12-29T08:43:54;-2.58;74.74
67192;HTU21D;54120;53.504;49.426;2023-12-29T08:46:20;-2.45;74.56
67192;HTU21D;54120;53.504;49.426;2023-12-29T08:48:46;-2.47;74.15
67192;HTU21D;54120;53.504;49.426;2023-12-29T08:51:12;-2.52;74.84
67192;HTU21D;54120;53.504;49.426;2023-12-29T08:53:39;-2.51;74.88
67192;HTU21D;54120;53.504;49.426;2023-12-29T08:56:05;-2.31;74.53
67192;HTU21D;54120;53.504;49.426;2023-12-29T08:58:31;-2.29;74.03
67192;HTU21D;54120;53.504;49.426;2023-12-29T09:00:57;-2.39;74.31
67192;HTU21D;54120;53.504;49.426;2023-12-29T09:03:23;-2.45;74.41
67192;HTU21D;54120;53.504;49.426;2023-12-29T09:05:49;-2.53;74.96
67192;HTU21D;54120;53.504;49.426;2023-12-29T09:08:16;-2.59;74.99
67192;HTU21D;54120;53.504;49.426;2023-12-29T09:10:42;-2.69;75.07
67192;HTU21D;54120;53.504;49.426;2023-12-29T09:13:13;-2.76;75.14
67192;HTU21D;54120;53.504;49.426;2023-12-29T09:15:40;-2.69;75.34
67192;HTU21D;54120;53.504;49.426;2023-12-29T09:18:06;-2.58;74.82
67192;HTU21D;54120;53.504;49.426;2023-12-29T09:20:32;-2.63;75.13
67192;HTU21D;54120;53.504;49.426;2023-12-29T09:23:12;-2.68;76.03
67192;HTU21D;54120;53.504;49.426;2023-12-29T09:25:39;-2.66;75.73
67192;HTU21D;54120;53.504;49.426;2023-12-29T09:28:11;-2.60;76.21
67192;HTU21D;54120;53.504;49.426;2023-12-29T09:31:13;-2.49;76.15
67192;HTU21D;54120;53.504;49.426;2023-12-29T09:34:17;-2.45;75.43
67192;HTU21D;54120;53.504;49.426;2023-12-29T09:36:44;-2.41;75.12
67192;HTU21D;54120;53.504;49.426;2023-12-29T09:39:10;-2.38;75.24
67192;HTU21D;54120;53.504;49.426;2023-12-29T09:41:39;-2.38;75.21
67192;HTU21D;54120;53.504;49.426;2023-12-29T09:44:14;-2.51;75.24
67192;HTU21D;54120;53.504;49.426;2023-12-29T09:46:42;-2.60;75.52
67192;HTU21D;54120;53.504;49.426;2023-12-29T09:49:09;-2.51;75.79
67192;HTU21D;54120;53.504;49.426;2023-12-29T09:51:36;-2.39;74.59
67192;HTU21D;54120;53.504;49.426;2023-12-29T09:54:03;-2.44;74.73
67192;HTU21D;54120;53.504;49.426;2023-12-29T09:56:30;-2.52;75.48
67192;HTU21D;54120;53.504;49.426;2023-12-29T09:58:56;-2.59;75.54
67192;HTU21D;54120;53.504;49.426;2023-12-29T10:01:24;-2.65;76.05
67192;HTU21D;54120;53.504;49.426;2023-12-29T10:03:53;-2.77;76.49
67192;HTU21D;54120;53.504;49.426;2023-12-29T10:06:24;-2.80;77.10
67192;HTU21D;54120;53.504;49.426;2023-12-29T10:08:51;-2.83;77.15
67192;HTU21D;54120;53.504;49.426;2023-12-29T10:11:21;-2.78;77.66
67192;HTU21D;54120;53.504;49.426;2023-12-29T10:13:50;-2.79;77.56
67192;HTU21D;54120;53.504;49.426;2023-12-29T10:16:40;-2.82;78.14
67192;HTU21D;54120;53.504;49.426;2023-12-29T10:19:23;-2.92;78.68
67192;HTU21D;54120;53.504;49.426;2023-12-29T10:22:06;-2.96;79.49
67192;HTU21D;54120;53.504;49.426;2023-12-29T10:24:34;-3.00;79.56
67192;HTU21D;54120;53.504;49.426;2023-12-29T10:27:01;-2.97;79.94
67192;HTU21D;54120;53.504;49.426;2023-12-29T10:29:27;-2.96;80.24
67192;HTU21D;54120;53.504;49.426;2023-12-29T10:31:53;-3.08;80.65
67192;HTU21D;54120;53.504;49.426;2023-12-29T10:34:23;-3.07;81.16
67192;HTU21D;54120;53.504;49.426;2023-12-29T10:36:59;-3.11;81.24
67192;HTU21D;54120;53.504;49.426;2023-12-29T10:39:29;-3.07;81.13
67192;HTU21D;54120;53.504;49.426;2023-12-29T10:42:07;-2.97;81.04
67192;HTU21D;54120;53.504;49.426;2023-12-29T10:44:35;-2.87;80.78
67192;HTU21D;54120;53.504;49.426;2023-12-29T10:47:12;-2.84;80.52
67192;HTU21D;54120;53.504;49.426;2023-12-29T10:49:40;-2.91;80.75
67192;HTU21D;54120;53.504;49.426;2023-12-29T10:52:13;-3.01;81.14
67192;HTU21D;54120;53.504;49.426;2023-12-29T10:54:41;-3.06;81.54
67192;HTU21D;54120;53.504;49.426;2023-12-29T10:57:08;-3.04;81.38
67192;HTU21D;54120;53.504;49.426;2023-12-29T10:59:35;-3.01;81.47
67192;HTU21D;54120;53.504;49.426;2023-12-29T11:02:02;-3.02;81.53
67192;HTU21D;54120;53.504;49.426;2023-12-29T11:04:34;-3.06;81.52
67192;HTU21D;54120;53.504;49.426;2023-12-29T11:07:00;-3.10;82.01
67192;HTU21D;54120;53.504;49.426;2023-12-29T11:09:30;-3.16;82.04
67192;HTU21D;54120;53.504;49.426;2023-12-29T11:12:01;-3.23;82.59
67192;HTU21D;54120;53.504;49.426;2023-12-29T11:14:27;-3.21;82.63
67192;HTU21D;54120;53.504;49.426;2023-12-29T11:16:57;-3.20;83.04
67192;HTU21D;54120;53.504;49.426;2023-12-29T11:19:27;-3.19;82.41
67192;HTU21D;54120;53.504;49.426;2023-12-29T11:21:55;-3.25;82.64
67192;HTU21D;54120;53.504;49.426;2023-12-29T11:24:22;-3.34;83.12
67192;HTU21D;54120;53.504;49.426;2023-12-29T11:26:51;-3.34;83.22
67192;HTU21D;54120;53.504;49.426;2023-12-29T11:29:19;-3.40;83.52
67192;HTU21D;54120;53.504;49.426;2023-12-29T11:31:46;-3.40;83.34
67192;HTU21D;54120;53.504;49.426;2023-12-29T11:36:45;-3.41;83.45
67192;HTU21D;54120;53.504;49.426;2023-12-29T11:39:24;-3.46;83.39
67192;HTU21D;54120;53.504;49.426;2023-12-29T11:42:05;-3.47;83.39
67192;HTU21D;54120;53.504;49.426;2023-12-29T11:44:33;-3.51;83.46
67192;HTU21D;54120;53.504;49.426;2023-12-29T11:46:59;-3.56;83.67
67192;HTU21D;54120;53.504;49.426;2023-12-29T11:49:25;-3.57;83.75
67192;HTU21D;54120;53.504;49.426;2023-12-29T11:51:52;-3.60;83.77
67192;HTU21D;54120;53.504;49.426;2023-12-29T11:56:53;-3.66;84.02
67192;HTU21D;54120;53.504;49.426;2023-12-29T11:59:21;-3.65;83.97
67192;HTU21D;54120;53.504;49.426;2023-12-29T12:01:53;-3.66;84.10
67192;HTU21D;54120;53.504;49.426;2023-12-29T12:04:40;-3.66;84.02
67192;HTU21D;54120;53.504;49.426;2023-12-29T12:07:07;-3.68;83.99
67192;HTU21D;54120;53.504;49.426;2023-12-29T12:09:34;-3.69;83.78
67192;HTU21D;54120;53.504;49.426;2023-12-29T12:12:02;-3.69;84.05
67192;HTU21D;54120;53.504;49.426;2023-12-29T12:14:49;-3.69;84.24
67192;HTU21D;54120;53.504;49.426;2023-12-29T12:19:57;-3.72;84.19
67192;HTU21D;54120;53.504;49.426;2023-12-29T12:22:25;-3.74;83.71
67192;HTU21D;54120;53.504;49.426;2023-12-29T12:24:56;-3.74;83.83
67192;HTU21D;54120;53.504;49.426;2023-12-29T12:27:25;-3.74;84.00
67192;HTU21D;54120;53.504;49.426;2023-12-29T12:29:56;-3.78;84.13
67192;HTU21D;54120;53.504;49.426;2023-12-29T12:32:25;-3.82;84.38
67192;HTU21D;54120;53.504;49.426;2023-12-29T12:34:52;-3.83;84.36
67192;HTU21D;54120;53.504;49.426;2023-12-29T12:37:28;-3.84;84.29
67192;HTU21D;54120;53.504;49.426;2023-12-29T12:39:55;-3.89;84.43
67192;HTU21D;54120;53.504;49.426;2023-12-29T12:42:22;-3.87;84.65
67192;HTU21D;54120;53.504;49.426;2023-12-29T12:47:43;-3.92;84.60
67192;HTU21D;54120;53.504;49.426;2023-12-29T12:50:11;-3.92;84.61
67192;HTU21D;54120;53.504;49.426;2023-12-29T12:52:38;-3.91;84.88
67192;HTU21D;54120;53.504;49.426;2023-12-29T12:55:09;-3.97;84.81
67192;HTU21D;54120;53.504;49.426;2023-12-29T12:57:37;-3.96;84.90
67192;HTU21D;54120;53.504;49.426;2023-12-29T13:00:04;-3.97;84.69
67192;HTU21D;54120;53.504;49.426;2023-12-29T13:02:33;-3.95;84.84
67192;HTU21D;54120;53.504;49.426;2023-12-29T13:05:00;-3.91;84.93
67192;HTU21D;54120;53.504;49.426;2023-12-29T13:07:29;-3.93;84.64
67192;HTU21D;54120;53.504;49.426;2023-12-29T13:09:57;-3.97;84.92
67192;HTU21D;54120;53.504;49.426;2023-12-29T13:12:23;-4.00;85.07
67192;HTU21D;54120;53.504;49.426;2023-12-29T13:19:23;-4.04;85.26
67192;HTU21D;54120;53.504;49.426;2023-12-29T13:21:53;-4.07;85.38
67192;HTU21D;54120;53.504;49.426;2023-12-29T13:24:22;-4.06;85.41
67192;HTU21D;54120;53.504;49.426;2023-12-29T13:26:52;-4.08;85.55
67192;HTU21D;54120;53.504;49.426;2023-12-29T13:29:21;-4.05;85.68
67192;HTU21D;54120;53.504;49.426;2023-12-29T13:31:52;-3.98;85.74
67192;HTU21D;54120;53.504;49.426;2023-12-29T13:42:30;-3.92;85.58
67192;HTU21D;54120;53.504;49.426;2023-12-29T13:44:59;-3.98;85.37
67192;HTU21D;54120;53.504;49.426;2023-12-29T13:47:26;-3.98;85.39
67192;HTU21D;54120;53.504;49.426;2023-12-29T13:49:52;-3.99;85.42
67192;HTU21D;54120;53.504;49.426;2023-12-29T13:52:18;-3.95;85.25
67192;HTU21D;54120;53.504;49.426;2023-12-29T13:54:49;-3.91;85.26
67192;HTU21D;54120;53.504;49.426;2023-12-29T13:57:18;-3.85;84.77
67192;HTU21D;54120;53.504;49.426;2023-12-29T13:59:44;-3.80;84.81
67192;HTU21D;54120;53.504;49.426;2023-12-29T14:02:32;-3.77;84.74
67192;HTU21D;54120;53.504;49.426;2023-12-29T14:05:35;-3.74;84.91
67192;HTU21D;54120;53.504;49.426;2023-12-29T14:08:23;-3.69;85.09
67192;HTU21D;54120;53.504;49.426;2023-12-29T14:10:51;-3.67;85.56
67192;HTU21D;54120;53.504;49.426;2023-12-29T14:13:17;-3.68;85.74
67192;HTU21D;54120;53.504;49.426;2023-12-29T14:15:44;-3.67;86.02
67192;HTU21D;54120;53.504;49.426;2023-12-29T14:20:52;-3.67;86.01
67192;HTU21D;54120;53.504;49.426;2023-12-29T14:23:18;-3.61;86.07
67192;HTU21D;54120;53.504;49.426;2023-12-29T14:25:45;-3.61;85.83
67192;HTU21D;54120;53.504;49.426;2023-12-29T14:28:19;-3.60;85.96
67192;HTU21D;54120;53.504;49.426;2023-12-29T14:30:46;-3.61;85.42
67192;HTU21D;54120;53.504;49.426;2023-12-29T14:33:13;-3.66;85.77
67192;HTU21D;54120;53.504;49.426;2023-12-29T14:35:39;-3.63;85.81
67192;HTU21D;54120;53.504;49.426;2023-12-29T14:38:06;-3.60;85.76
67192;HTU21D;54120;53.504;49.426;2023-12-29T14:40:32;-3.57;85.35
67192;HTU21D;54120;53.504;49.426;2023-12-29T14:43:01;-3.52;85.00
67192;HTU21D;54120;53.504;49.426;2023-12-29T14:45:28;-3.54;84.49
67192;HTU21D;54120;53.504;49.426;2023-12-29T14:47:58;-3.57;84.49
67192;HTU21D;54120;53.504;49.426;2023-12-29T14:50:26;-3.54;84.97
67192;HTU21D;54120;53.504;49.426;2023-12-29T14:52:53;-3.50;85.40
67192;HTU21D;54120;53.504;49.426;2023-12-29T14:55:20;-3.49;85.00
67192;HTU21D;54120;53.504;49.426;2023-12-29T14:57:46;-3.51;84.55
67192;HTU21D;54120;53.504;49.426;2023-12-29T15:00:13;-3.51;84.79
67192;HTU21D;54120;53.504;49.426;2023-12-29T15:02:40;-3.50;85.16
67192;HTU21D;54120;53.504;49.426;2023-12-29T15:05:08;-3.51;84.89
67192;HTU21D;54120;53.504;49.426;2023-12-29T15:07:35;-3.52;85.51
67192;HTU21D;54120;53.504;49.426;2023-12-29T15:10:01;-3.51;85.42
67192;HTU21D;54120;53.504;49.426;2023-12-29T15:12:28;-3.51;85.80
67192;HTU21D;54120;53.504;49.426;2023-12-29T15:14:54;-3.47;86.58
67192;HTU21D;54120;53.504;49.426;2023-12-29T15:17:20;-3.51;85.80
67192;HTU21D;54120;53.504;49.426;2023-12-29T15:19:47;-3.52;86.30
67192;HTU21D;54120;53.504;49.426;2023-12-29T15:22:14;-3.48;87.00
67192;HTU21D;54120;53.504;49.426;2023-12-29T15:24:40;-3.48;86.99
67192;HTU21D;54120;53.504;49.426;2023-12-29T15:27:07;-3.48;87.50
67192;HTU21D;54120;53.504;49.426;2023-12-29T15:29:33;-3.53;87.82
67192;HTU21D;54120;53.504;49.426;2023-12-29T15:31:59;-3.57;88.01
67192;HTU21D;54120;53.504;49.426;2023-12-29T15:34:25;-3.57;88.12
67192;HTU21D;54120;53.504;49.426;2023-12-29T15:36:52;-3.61;88.64